createdAt,value
2023-03-22T00:04:32.563Z,82.01
2023-03-22T00:10:55.600Z,81.76
2023-03-22T00:17:15.641Z,81.99
2023-03-22T00:23:38.636Z,82.68
2023-03-22T00:29:58.605Z,82.9
2023-03-22T00:36:21.676Z,83.2
2023-03-22T00:42:41.573Z,83.57
2023-03-22T00:49:04.681Z,84.16
2023-03-22T00:55:24.697Z,84.38
2023-03-22T01:01:47.598Z,84.07
2023-03-22T01:08:07.658Z,84.25
2023-03-22T01:14:30.658Z,84.44
2023-03-22T01:20:50.635Z,84.71
2023-03-22T01:27:13.602Z,84.51
2023-03-22T01:33:33.648Z,84.44
2023-03-22T01:39:56.600Z,84.86
2023-03-22T01:46:16.627Z,84.97
2023-03-22T01:52:39.634Z,84.95
2023-03-22T01:58:59.618Z,85.01
2023-03-22T02:05:22.608Z,85.04
2023-03-22T02:11:42.669Z,84.99
2023-03-22T02:18:05.584Z,84.91
2023-03-22T02:24:25.614Z,85.34
2023-03-22T02:30:48.696Z,85.28
2023-03-22T02:37:08.683Z,85.01
2023-03-22T02:43:31.590Z,84.8
2023-03-22T02:49:51.655Z,84.51
2023-03-22T02:56:14.614Z,84.72
2023-03-22T03:02:34.631Z,84.73
2023-03-22T03:08:57.643Z,85.69
2023-03-22T03:15:17.643Z,85.12
2023-03-22T03:21:40.627Z,85.13
2023-03-22T03:28:00.626Z,84.71
2023-03-22T03:34:23.571Z,84.94
2023-03-22T03:40:43.676Z,84.88
2023-03-22T03:47:06.618Z,85.25
2023-03-22T03:53:26.629Z,85.34
2023-03-22T03:59:49.605Z,85.2
2023-03-22T04:06:09.681Z,84.45
2023-03-22T04:12:32.575Z,83.66
2023-03-22T04:28:57.538Z,82.43
2023-03-22T04:35:17.636Z,82.69
2023-03-22T04:41:40.600Z,82.86
2023-03-22T04:48:00.693Z,82.94
2023-03-22T04:54:23.605Z,83.17
2023-03-22T05:00:43.580Z,83.31
2023-03-22T05:07:06.598Z,83.43
2023-03-22T05:13:26.628Z,83.76
2023-03-22T05:19:49.599Z,84.35
2023-03-22T05:26:09.687Z,84.14
2023-03-22T05:32:32.593Z,83.94
2023-03-22T05:38:52.600Z,83.75
2023-03-22T05:45:15.644Z,84.68
2023-03-22T05:51:35.603Z,85.39
2023-03-22T05:57:58.639Z,85.74
2023-03-22T06:04:18.705Z,85.51
2023-03-22T06:10:41.921Z,85.8
2023-03-22T06:17:01.626Z,85.64
2023-03-22T06:23:24.702Z,85.24
2023-03-22T06:29:44.618Z,84.56
2023-03-22T06:36:07.611Z,84.6
2023-03-22T06:42:27.605Z,84.72
2023-03-22T06:48:50.588Z,84.23
2023-03-22T06:55:10.577Z,84.13
2023-03-22T07:01:33.664Z,83.94
2023-03-22T07:07:53.636Z,83.78
2023-03-22T07:14:16.576Z,83.33
2023-03-22T07:20:36.628Z,83.3
2023-03-22T07:26:59.579Z,83.09
2023-03-22T07:33:19.585Z,82.5
2023-03-22T07:39:43.013Z,79.75
2023-03-22T07:46:02.584Z,76.07
2023-03-22T07:52:25.592Z,73.68
2023-03-22T07:58:45.626Z,72.62
2023-03-22T08:05:08.624Z,70.72
2023-03-22T08:11:28.593Z,69.31
2023-03-22T08:17:51.601Z,69.12
2023-03-22T08:24:12.071Z,67.62
2023-03-22T08:30:34.592Z,67.36
2023-03-22T08:36:54.679Z,66.21
2023-03-22T08:43:17.599Z,64.57
2023-03-22T08:49:37.593Z,62.62
2023-03-22T08:56:00.672Z,62.19
2023-03-22T09:02:20.639Z,61.22
2023-03-22T09:08:43.600Z,60.82
2023-03-22T09:15:03.635Z,60.15
2023-03-22T09:21:26.563Z,59.56
2023-03-22T09:27:46.641Z,58.88
2023-03-22T09:34:09.606Z,59.49
2023-03-22T09:57:51.104Z,56.5
2023-03-22T10:04:10.673Z,56.58
2023-03-22T10:10:33.624Z,56.51
2023-03-22T10:16:55.306Z,55.54
2023-03-22T10:23:16.573Z,54.89
2023-03-22T10:29:36.644Z,55.54
2023-03-22T10:35:59.617Z,55.18
2023-03-22T10:42:19.591Z,54.22
2023-03-22T10:48:42.598Z,53.04
2023-03-22T10:55:04.547Z,53.45
2023-03-22T11:01:25.748Z,52.91
2023-03-22T11:07:45.573Z,52.43
2023-03-22T11:14:08.664Z,50.76
2023-03-22T11:20:30.612Z,50.94
2023-03-22T11:26:51.564Z,51.25
2023-03-22T11:33:11.646Z,50.71
2023-03-22T11:39:34.589Z,51.22
2023-03-22T11:45:54.687Z,50.11
2023-03-22T11:52:17.601Z,51.2
2023-03-22T11:58:37.569Z,52.16
2023-03-22T12:05:00.754Z,51.75
2023-03-22T12:11:20.726Z,51.14
2023-03-22T12:17:43.620Z,51.31
2023-03-22T12:24:03.607Z,51.81
2023-03-22T12:30:26.884Z,52.25
2023-03-22T12:36:46.582Z,52.23
2023-03-22T12:43:09.576Z,52.32
2023-03-22T12:49:29.600Z,52.23
2023-03-22T12:55:52.570Z,52.33
2023-03-22T13:02:12.633Z,52.87
2023-03-22T13:08:35.705Z,53.74
2023-03-22T13:14:55.595Z,54.35
2023-03-22T13:21:18.860Z,55.14
2023-03-22T13:27:39.600Z,55.31
2023-03-22T13:34:02.692Z,55.84
2023-03-22T13:40:22.564Z,56.55
2023-03-22T13:46:45.666Z,57.01
2023-03-22T13:53:05.588Z,57.38
2023-03-22T13:59:28.648Z,56.76
2023-03-22T14:05:48.697Z,57.47
2023-03-22T14:12:11.637Z,56.86
2023-03-22T14:18:31.635Z,57.43
2023-03-22T14:49:16.623Z,57.57
2023-03-22T14:55:36.564Z,57.63
2023-03-22T15:01:59.608Z,57.47
2023-03-22T15:08:19.623Z,57.25
2023-03-22T15:14:42.578Z,57.26
2023-03-22T15:21:02.589Z,56.99
2023-03-22T15:37:30.554Z,57.2
2023-03-22T15:43:50.598Z,57.71
2023-03-22T15:50:13.626Z,57.9
2023-03-22T15:56:35.256Z,57.94
2023-03-22T16:02:56.580Z,58.33
2023-03-22T16:09:16.609Z,58.5
2023-03-22T16:15:39.728Z,58.65
2023-03-22T16:21:59.582Z,59.06
2023-03-22T16:28:22.658Z,58.92
2023-03-22T16:34:42.644Z,59.11
2023-03-22T16:41:05.598Z,59.28
2023-03-22T16:47:25.565Z,59.22
2023-03-22T16:53:48.623Z,59.34
2023-03-22T17:00:08.965Z,59.56
2023-03-22T17:06:31.601Z,59.52
2023-03-22T17:12:51.586Z,59.54
2023-03-22T17:19:14.603Z,59.8
2023-03-22T17:25:34.590Z,59.76
2023-03-22T17:32:03.394Z,59.95
2023-03-22T17:38:18.598Z,60.08
2023-03-22T17:44:40.575Z,60.19
2023-03-22T17:51:00.624Z,60.26
2023-03-22T18:03:44.587Z,60.72
2023-03-22T18:10:07.621Z,60.91
2023-03-22T18:16:52.660Z,60.71
2023-03-22T18:22:50.702Z,61.06
2023-03-22T18:29:10.588Z,61.28
2023-03-22T18:35:33.583Z,61.06
2023-03-22T18:41:57.220Z,61.25
2023-03-22T18:48:16.599Z,60.97
2023-03-22T18:54:38.100Z,61.42
2023-03-22T19:00:59.560Z,61.56
2023-03-22T19:07:30.284Z,61.51
2023-03-22T19:14:06.231Z,61.72
2023-03-22T19:20:02.583Z,61.85
2023-03-22T19:26:26.149Z,62.07
2023-03-22T19:33:02.365Z,62.26
2023-03-22T19:39:11.592Z,62.34
2023-03-22T19:45:28.618Z,62.04
2023-03-22T19:51:51.594Z,62.2
2023-03-22T19:58:11.585Z,62.46
2023-03-22T20:04:34.606Z,62.62
2023-03-22T20:10:54.567Z,62.73
2023-03-22T20:17:24.364Z,62.69
2023-03-22T20:23:37.911Z,62.8
2023-03-22T20:30:00.637Z,62.68
2023-03-22T20:36:20.652Z,62.75
2023-03-22T20:42:43.629Z,63.14
2023-03-22T20:58:51.608Z,64.59
2023-03-22T21:05:14.562Z,65.72
2023-03-22T21:11:34.717Z,65.15
2023-03-22T21:17:57.612Z,65.43
2023-03-22T21:24:17.804Z,65.63
2023-03-22T21:30:40.610Z,65.78
2023-03-22T21:37:00.609Z,65.59
2023-03-22T21:43:23.640Z,64.55
2023-03-22T21:49:43.610Z,63.94
2023-03-22T21:56:06.631Z,63.67
2023-03-22T22:02:26.559Z,63.71
2023-03-22T22:08:49.581Z,63.77
2023-03-22T22:15:09.633Z,64.62
2023-03-22T22:21:32.592Z,66.99
2023-03-22T22:27:52.589Z,68.4
2023-03-22T22:34:15.632Z,69.71
2023-03-22T22:40:35.595Z,70.69
2023-03-22T22:46:58.631Z,71.36
2023-03-22T22:53:18.622Z,72.1
2023-03-22T22:59:41.584Z,71.49
2023-03-22T23:22:39.585Z,71.43
2023-03-22T23:28:59.582Z,70.57
2023-03-22T23:35:22.669Z,69.72
2023-03-22T23:41:42.622Z,68.57
2023-03-22T23:48:05.555Z,68.61
2023-03-22T23:54:25.601Z,68.14
